Time;durP1;ratioP1;P1;durP2;ratioP2;P2;SDS_P1;SDS_P2;PMS_P1;PMS_P2;Temp;Humidity;BMP_temperature;BMP_pressure;BME280_temperature;BME280_humidity;BME280_pressure;Samples;Min_cycle;Max_cycle;Signal;HPM_P1;HPM_P2
2024/02/07 00:01:48;;;;;;;;;11.33;11.00;;;;;;;;4975239;28;45524;-69
2024/02/07 00:04:13;;;;;;;;;13.00;12.00;;;;;;;;4959298;28;45420;-69
2024/02/07 00:06:38;;;;;;;;;9.33;9.00;;;;;;;;4956033;28;45358;-69
2024/02/07 00:09:04;;;;;;;;;12.33;8.00;;;;;;;;4957204;28;45550;-69
2024/02/07 00:11:29;;;;;;;;;9.33;9.00;;;;;;;;4981385;28;45344;-69
2024/02/07 00:13:54;;;;;;;;;14.67;10.33;;;;;;;;4971468;28;45540;-69
2024/02/07 00:16:19;;;;;;;;;9.00;9.00;;;;;;;;4963064;28;45413;-69
2024/02/07 00:18:45;;;;;;;;;14.25;12.25;;;;;;;;4980911;28;45545;-69
2024/02/07 00:21:10;;;;;;;;;9.67;9.00;;;;;;;;4970287;28;46266;-69
2024/02/07 00:23:35;;;;;;;;;8.25;8.25;;;;;;;;4952852;28;45836;-69
2024/02/07 00:26:01;;;;;;;;;13.50;10.50;;;;;;;;4980855;28;45368;-69
2024/02/07 00:28:26;;;;;;;;;12.67;10.00;;;;;;;;4981001;28;45687;-69
2024/02/07 00:30:52;;;;;;;;;9.67;9.00;;;;;;;;4980861;28;46092;-69
2024/02/07 00:33:17;;;;;;;;;10.00;8.75;;;;;;;;4979099;28;45428;-69
2024/02/07 00:35:42;;;;;;;;;11.33;10.33;;;;;;;;4978592;28;45440;-69
2024/02/07 00:38:07;;;;;;;;;12.50;9.75;;;;;;;;4975899;28;45601;-69
2024/02/07 00:40:33;;;;;;;;;12.00;9.33;;;;;;;;4980668;28;45344;-68
2024/02/07 00:42:58;;;;;;;;;11.25;10.00;;;;;;;;4979446;28;45336;-69
2024/02/07 00:45:23;;;;;;;;;10.00;8.50;;;;;;;;4979915;28;45330;-69
2024/02/07 00:47:49;;;;;;;;;11.25;11.25;;;;;;;;4980583;28;45627;-69
2024/02/07 00:50:14;;;;;;;;;13.33;12.00;;;;;;;;4977715;28;46251;-69
2024/02/07 00:52:39;;;;;;;;;10.25;10.00;;;;;;;;4978171;28;45391;-69
2024/02/07 00:55:05;;;;;;;;;11.67;11.67;;;;;;;;4980366;28;45494;-69
2024/02/07 00:57:30;;;;;;;;;13.25;11.00;;;;;;;;4979705;28;45461;-69
2024/02/07 00:59:55;;;;;;;;;10.00;8.00;;;;;;;;4962757;28;47387;-69
2024/02/07 01:02:20;;;;;;;;;13.67;9.00;;;;;;;;4979314;28;45353;-69
2024/02/07 01:04:47;;;;;;;;;9.75;8.75;;;;;;;;4947503;28;45788;-69
2024/02/07 01:07:12;;;;;;;;;9.75;9.75;;;;;;;;4968118;28;45349;-69
2024/02/07 01:09:37;;;;;;;;;9.00;6.67;;;;;;;;4974055;28;45346;-69
2024/02/07 01:12:02;;;;;;;;;11.00;9.00;;;;;;;;4979072;28;45508;-69
2024/02/07 01:14:28;;;;;;;;;9.25;8.00;;;;;;;;4979675;28;45449;-69
2024/02/07 01:16:53;;;;;;;;;12.00;9.67;;;;;;;;4980120;28;45397;-69
2024/02/07 01:19:18;;;;;;;;;12.33;10.33;;;;;;;;4979378;28;46261;-69
2024/02/07 01:21:43;;;;;;;;;11.75;9.00;;;;;;;;4978855;28;45348;-69
2024/02/07 01:24:09;;;;;;;;;6.25;6.25;;;;;;;;4980277;28;45468;-69
2024/02/07 01:26:34;;;;;;;;;10.33;9.67;;;;;;;;4980223;28;45353;-69
2024/02/07 01:29:00;;;;;;;;;6.75;6.00;;;;;;;;4970475;28;45604;-69
2024/02/07 01:31:25;;;;;;;;;11.67;9.00;;;;;;;;4978445;28;45431;-70
2024/02/07 01:33:50;;;;;;;;;11.33;8.67;;;;;;;;4967198;28;45550;-68
2024/02/07 01:36:15;;;;;;;;;15.00;12.33;;;;;;;;4960049;28;45390;-69
2024/02/07 01:38:41;;;;;;;;;11.33;9.67;;;;;;;;4962196;28;48325;-69
2024/02/07 01:41:06;;;;;;;;;10.25;10.25;;;;;;;;4970760;28;45454;-70
2024/02/07 01:43:33;;;;;;;;;13.00;12.00;;;;;;;;4978851;28;45362;-70
2024/02/07 01:45:59;;;;;;;;;9.25;8.00;;;;;;;;4979803;28;45511;-69
2024/02/07 01:48:24;;;;;;;;;10.00;8.50;;;;;;;;4978969;28;45448;-69
2024/02/07 01:50:50;;;;;;;;;12.33;11.00;;;;;;;;4976604;28;45319;-69
2024/02/07 01:53:17;;;;;;;;;9.00;8.00;;;;;;;;4977386;28;45673;-69
2024/02/07 01:55:44;;;;;;;;;9.75;9.75;;;;;;;;4979564;28;45663;-69
2024/02/07 01:58:09;;;;;;;;;9.00;7.00;;;;;;;;4979075;28;46069;-69
2024/02/07 02:00:35;;;;;;;;;13.50;8.75;;;;;;;;4960327;28;45685;-69
2024/02/07 02:03:01;;;;;;;;;10.50;8.50;;;;;;;;4979463;28;45317;-69
2024/02/07 02:05:26;;;;;;;;;14.50;8.50;;;;;;;;4977998;28;45377;-69
2024/02/07 02:07:53;;;;;;;;;11.33;9.00;;;;;;;;4978413;28;45688;-69
2024/02/07 02:10:18;;;;;;;;;7.25;6.75;;;;;;;;4978163;28;45668;-69
2024/02/07 02:12:43;;;;;;;;;9.33;9.33;;;;;;;;4979239;28;45375;-69
2024/02/07 02:15:08;;;;;;;;;10.75;9.25;;;;;;;;4979290;28;45411;-69
2024/02/07 02:17:34;;;;;;;;;9.25;7.00;;;;;;;;4977284;28;45251;-69
2024/02/07 02:19:59;;;;;;;;;12.75;9.50;;;;;;;;4979570;28;45297;-69
2024/02/07 02:22:47;;;;;;;;;9.50;7.50;;;;;;;;4977826;28;45302;-70
2024/02/07 02:25:34;;;;;;;;;9.75;8.75;;;;;;;;4979344;28;45298;-69
2024/02/07 02:28:17;;;;;;;;;11.75;11.25;;;;;;;;4953676;28;47462;-69
2024/02/07 02:30:50;;;;;;;;;12.00;12.00;;;;;;;;4967100;28;46430;-69
2024/02/07 02:33:18;;;;;;;;;7.75;7.50;;;;;;;;4965807;28;45465;-69
2024/02/07 02:35:43;;;;;;;;;8.75;7.00;;;;;;;;4978421;28;45611;-70
2024/02/07 02:38:09;;;;;;;;;7.50;7.50;;;;;;;;4978901;28;45325;-69
2024/02/07 02:40:34;;;;;;;;;7.67;7.33;;;;;;;;4967733;28;45535;-69
2024/02/07 02:42:59;;;;;;;;;12.00;9.67;;;;;;;;4959096;28;45470;-69
2024/02/07 02:45:24;;;;;;;;;9.67;8.67;;;;;;;;4978843;28;46787;-69
2024/02/07 02:47:50;;;;;;;;;9.50;9.00;;;;;;;;4978607;28;45923;-69
2024/02/07 02:50:20;;;;;;;;;14.00;10.75;;;;;;;;4976638;28;45404;-70
2024/02/07 02:52:46;;;;;;;;;7.75;7.75;;;;;;;;4975796;28;45388;-70
2024/02/07 02:55:11;;;;;;;;;11.00;6.00;;;;;;;;4954956;28;45275;-69
2024/02/07 02:57:37;;;;;;;;;10.50;9.25;;;;;;;;4970547;28;45258;-69
2024/02/07 03:00:07;;;;;;;;;8.50;8.25;;;;;;;;4979078;28;45380;-69
2024/02/07 03:02:32;;;;;;;;;12.75;10.50;;;;;;;;4969510;28;45397;-70
2024/02/07 03:04:58;;;;;;;;;9.25;7.25;;;;;;;;4973160;28;45495;-69
2024/02/07 03:10:07;;;;;;;;;13.50;11.50;;;;;;;;4976504;28;45575;-69
2024/02/07 03:12:33;;;;;;;;;11.00;8.25;;;;;;;;4979477;28;45436;-69
2024/02/07 03:14:58;;;;;;;;;9.00;8.50;;;;;;;;4982174;28;45697;-69
2024/02/07 03:17:23;;;;;;;;;9.00;7.00;;;;;;;;4981498;28;46203;-69
2024/02/07 03:19:48;;;;;;;;;5.75;5.00;;;;;;;;4982166;28;45311;-69
2024/02/07 03:22:13;;;;;;;;;11.00;10.33;;;;;;;;4980607;28;45386;-70
2024/02/07 03:24:41;;;;;;;;;13.67;9.00;;;;;;;;4954859;28;45538;-69
2024/02/07 03:27:07;;;;;;;;;12.00;10.50;;;;;;;;4968478;28;46055;-69
2024/02/07 03:29:32;;;;;;;;;12.25;9.00;;;;;;;;4972232;28;45272;-69
2024/02/07 03:31:58;;;;;;;;;10.50;9.25;;;;;;;;4979058;28;45771;-69
2024/02/07 03:34:23;;;;;;;;;11.00;9.25;;;;;;;;4970395;28;45460;-69
2024/02/07 03:36:48;;;;;;;;;10.00;9.00;;;;;;;;4981489;28;45385;-69
2024/02/07 03:39:13;;;;;;;;;11.33;11.33;;;;;;;;4981486;28;45382;-69
2024/02/07 03:41:41;;;;;;;;;8.00;8.00;;;;;;;;4978435;28;45659;-69
2024/02/07 03:44:10;;;;;;;;;14.50;8.75;;;;;;;;4973036;28;45451;-69
2024/02/07 03:46:35;;;;;;;;;14.00;11.25;;;;;;;;4981102;28;45493;-70
2024/02/07 03:49:01;;;;;;;;;10.67;8.00;;;;;;;;4981667;28;45418;-69
2024/02/07 03:51:28;;;;;;;;;10.33;9.00;;;;;;;;4978150;28;45440;-70
2024/02/07 03:53:53;;;;;;;;;7.25;6.25;;;;;;;;4972846;28;45452;-70
2024/02/07 03:56:18;;;;;;;;;10.00;10.00;;;;;;;;4963780;28;47149;-70
2024/02/07 03:58:44;;;;;;;;;13.33;9.00;;;;;;;;4981183;28;45470;-70
2024/02/07 04:01:12;;;;;;;;;8.75;7.75;;;;;;;;4953968;28;45401;-69
2024/02/07 04:03:37;;;;;;;;;13.50;9.75;;;;;;;;4977201;28;45432;-69
2024/02/07 04:06:04;;;;;;;;;12.33;8.33;;;;;;;;4977990;28;45573;-70
2024/02/07 04:08:30;;;;;;;;;9.00;9.00;;;;;;;;4980915;28;45675;-69
2024/02/07 04:10:55;;;;;;;;;10.75;9.50;;;;;;;;4980576;28;45456;-69
2024/02/07 05:16:01;;;;;;;;;11.25;9.25;;;;;;;;4962182;28;45556;-70
2024/02/07 05:18:26;;;;;;;;;17.67;14.00;;;;;;;;4972502;28;45480;-69
2024/02/07 05:20:51;;;;;;;;;12.33;10.33;;;;;;;;4963472;28;46195;-69
2024/02/07 05:23:17;;;;;;;;;8.75;8.75;;;;;;;;4968110;28;45318;-69
2024/02/07 05:25:44;;;;;;;;;13.00;13.00;;;;;;;;4960712;28;45451;-69
2024/02/07 05:28:09;;;;;;;;;11.00;9.25;;;;;;;;4970630;28;45266;-69
2024/02/07 05:30:34;;;;;;;;;14.50;11.50;;;;;;;;4976927;28;46474;-69
2024/02/07 05:33:00;;;;;;;;;12.33;12.33;;;;;;;;4967454;28;45258;-69
2024/02/07 05:35:25;;;;;;;;;8.67;8.33;;;;;;;;4976990;28;45347;-69
2024/02/07 05:37:52;;;;;;;;;13.33;12.00;;;;;;;;4960250;28;45630;-69
2024/02/07 05:40:17;;;;;;;;;12.75;9.50;;;;;;;;4978715;28;47307;-69
2024/02/07 05:42:43;;;;;;;;;11.25;9.50;;;;;;;;4959992;28;45549;-69
2024/02/07 05:45:08;;;;;;;;;10.67;9.00;;;;;;;;4962168;28;45420;-69
2024/02/07 05:47:34;;;;;;;;;12.50;10.25;;;;;;;;4979319;28;46741;-69
2024/02/07 05:49:59;;;;;;;;;13.33;13.33;;;;;;;;4978449;28;45423;-69
2024/02/07 05:52:26;;;;;;;;;10.00;8.33;;;;;;;;4979749;28;45605;-69
2024/02/07 05:54:51;;;;;;;;;13.50;12.50;;;;;;;;4979731;28;45459;-69
2024/02/07 05:57:16;;;;;;;;;15.00;12.50;;;;;;;;4979366;28;45710;-70
2024/02/07 05:59:41;;;;;;;;;13.33;10.67;;;;;;;;4976530;28;46266;-69
2024/02/07 06:02:06;;;;;;;;;14.00;12.00;;;;;;;;4962160;28;45546;-69
2024/02/07 06:04:34;;;;;;;;;11.33;9.67;;;;;;;;4976566;28;45494;-68
2024/02/07 06:06:59;;;;;;;;;11.25;11.00;;;;;;;;4969718;28;45525;-69
2024/02/07 06:09:24;;;;;;;;;8.00;7.00;;;;;;;;4945107;28;47558;-69
2024/02/07 06:11:51;;;;;;;;;15.33;13.00;;;;;;;;4979522;28;45410;-69
2024/02/07 06:14:16;;;;;;;;;9.25;9.25;;;;;;;;4978897;28;45405;-69
2024/02/07 06:16:41;;;;;;;;;13.00;10.33;;;;;;;;4961623;28;45769;-69
2024/02/07 06:19:07;;;;;;;;;12.00;9.00;;;;;;;;4978071;28;46331;-69
2024/02/07 06:21:32;;;;;;;;;16.67;12.33;;;;;;;;4956377;28;45351;-70
2024/02/07 06:23:57;;;;;;;;;12.25;10.00;;;;;;;;4979273;28;45385;-69
2024/02/07 06:26:23;;;;;;;;;11.25;11.00;;;;;;;;4956226;28;45701;-69
2024/02/07 06:28:48;;;;;;;;;11.00;9.00;;;;;;;;4953465;28;46999;-69
2024/02/07 06:31:13;;;;;;;;;13.00;12.00;;;;;;;;4953136;28;45455;-69
2024/02/07 06:33:39;;;;;;;;;14.75;12.25;;;;;;;;4966122;28;45363;-69
2024/02/07 06:36:04;;;;;;;;;18.00;14.50;;;;;;;;4980521;28;45460;-69
2024/02/07 06:38:30;;;;;;;;;12.00;9.50;;;;;;;;4961035;28;47056;-69
2024/02/07 06:40:55;;;;;;;;;13.00;12.00;;;;;;;;4981391;28;45377;-69
2024/02/07 06:43:20;;;;;;;;;16.67;12.67;;;;;;;;4952162;28;45415;-69
2024/02/07 06:45:45;;;;;;;;;14.67;14.00;;;;;;;;4982163;28;45431;-68
2024/02/07 06:48:10;;;;;;;;;13.00;10.67;;;;;;;;4951296;28;46926;-69
2024/02/07 06:50:36;;;;;;;;;13.67;11.67;;;;;;;;4978737;28;45652;-68
2024/02/07 06:53:01;;;;;;;;;13.33;11.00;;;;;;;;4982630;28;45547;-69
2024/02/07 06:55:26;;;;;;;;;13.00;12.67;;;;;;;;4964359;28;45658;-69
2024/02/07 06:57:51;;;;;;;;;14.00;12.33;;;;;;;;4975614;28;46295;-69
2024/02/07 07:00:17;;;;;;;;;13.67;11.67;;;;;;;;4963655;28;45521;-69
2024/02/07 07:02:42;;;;;;;;;12.50;9.25;;;;;;;;4982341;28;45513;-69
2024/02/07 07:05:07;;;;;;;;;11.75;11.75;;;;;;;;4964664;28;45462;-69
2024/02/07 07:07:33;;;;;;;;;12.25;10.50;;;;;;;;4964097;28;47460;-69
2024/02/07 07:09:58;;;;;;;;;11.50;9.50;;;;;;;;4960790;28;45436;-69
2024/02/07 07:12:23;;;;;;;;;14.67;8.67;;;;;;;;4961848;28;45346;-69
2024/02/07 07:14:48;;;;;;;;;14.33;13.00;;;;;;;;4962937;28;45972;-70
2024/02/07 07:17:14;;;;;;;;;12.00;9.67;;;;;;;;4973613;28;46124;-66
2024/02/07 07:19:39;;;;;;;;;9.00;9.00;;;;;;;;4955773;28;45921;-66
2024/02/07 07:22:04;;;;;;;;;13.50;12.00;;;;;;;;4978065;28;45306;-66
2024/02/07 07:24:32;;;;;;;;;14.25;13.00;;;;;;;;4947395;28;45374;-66
2024/02/07 07:27:00;;;;;;;;;16.00;10.25;;;;;;;;4976537;28;45390;-66
2024/02/07 07:29:25;;;;;;;;;14.75;12.50;;;;;;;;4979963;28;45431;-66
2024/02/07 07:31:51;;;;;;;;;18.25;15.00;;;;;;;;4978447;28;45948;-66
2024/02/07 07:34:18;;;;;;;;;13.00;10.25;;;;;;;;4959410;28;45563;-66
2024/02/07 07:36:48;;;;;;;;;11.50;9.50;;;;;;;;4977298;28;45502;-66
2024/02/07 07:39:13;;;;;;;;;9.00;9.00;;;;;;;;4979562;28;45506;-66
2024/02/07 07:41:39;;;;;;;;;14.00;12.25;;;;;;;;4962380;28;45467;-66
2024/02/07 07:44:06;;;;;;;;;11.50;9.50;;;;;;;;4977419;28;45413;-66
2024/02/07 07:46:32;;;;;;;;;10.50;9.25;;;;;;;;4974129;28;45601;-66
2024/02/07 07:48:59;;;;;;;;;15.25;14.00;;;;;;;;4980664;28;45693;-66
2024/02/07 07:51:27;;;;;;;;;15.25;14.50;;;;;;;;4961611;28;45447;-66
2024/02/07 07:54:00;;;;;;;;;13.75;12.75;;;;;;;;4972408;28;45684;-66
2024/02/07 07:56:31;;;;;;;;;14.25;12.50;;;;;;;;4966646;28;45520;-67
2024/02/07 07:58:56;;;;;;;;;13.25;13.00;;;;;;;;4957122;28;45949;-66
2024/02/07 08:01:22;;;;;;;;;12.75;11.00;;;;;;;;4959369;28;45763;-68
2024/02/07 08:03:47;;;;;;;;;15.00;12.00;;;;;;;;4962404;28;45639;-66
2024/02/07 08:06:14;;;;;;;;;12.00;12.00;;;;;;;;4961696;28;48064;-66
2024/02/07 08:08:39;;;;;;;;;13.00;12.00;;;;;;;;4980953;28;45621;-67
2024/02/07 08:11:05;;;;;;;;;15.50;15.50;;;;;;;;4979789;28;45294;-67
2024/02/07 08:13:33;;;;;;;;;16.75;13.00;;;;;;;;4974597;28;45388;-69
2024/02/07 08:16:09;;;;;;;;;10.75;9.00;;;;;;;;4968475;28;46657;-68
2024/02/07 08:18:35;;;;;;;;;17.00;14.00;;;;;;;;4958362;28;45960;-67
2024/02/07 08:21:00;;;;;;;;;14.67;13.00;;;;;;;;4958107;28;45518;-67
2024/02/07 08:23:25;;;;;;;;;17.75;13.75;;;;;;;;4951608;28;45495;-67
2024/02/07 08:25:50;;;;;;;;;12.75;12.50;;;;;;;;4963140;28;47525;-69
2024/02/07 08:28:16;;;;;;;;;10.50;8.25;;;;;;;;4978225;28;45482;-70
2024/02/07 08:30:41;;;;;;;;;13.25;10.50;;;;;;;;4970322;28;45412;-70
2024/02/07 08:33:06;;;;;;;;;13.00;12.00;;;;;;;;4964086;28;45570;-70
2024/02/07 08:35:32;;;;;;;;;14.00;14.00;;;;;;;;4972045;28;45393;-71
2024/02/07 08:37:58;;;;;;;;;17.00;14.50;;;;;;;;4976588;28;45433;-70
2024/02/07 08:40:33;;;;;;;;;13.25;9.50;;;;;;;;4963480;28;45451;-71
2024/02/07 08:43:03;;;;;;;;;13.50;10.25;;;;;;;;4972466;28;45661;-70
2024/02/07 08:45:28;;;;;;;;;14.50;13.00;;;;;;;;4976747;28;45336;-70
2024/02/07 08:47:53;;;;;;;;;18.00;13.00;;;;;;;;4954038;28;45717;-69
2024/02/07 08:50:19;;;;;;;;;15.67;13.33;;;;;;;;4977128;28;45703;-70
2024/02/07 08:52:45;;;;;;;;;16.25;13.00;;;;;;;;4976322;28;45371;-70
2024/02/07 08:55:11;;;;;;;;;15.25;14.25;;;;;;;;4978047;28;45559;-73
2024/02/07 08:57:36;;;;;;;;;15.75;14.50;;;;;;;;4977814;28;45337;-71
2024/02/07 09:00:02;;;;;;;;;15.50;14.50;;;;;;;;4979619;28;45753;-72
2024/02/07 09:02:27;;;;;;;;;19.50;16.50;;;;;;;;4960041;28;46335;-70
2024/02/07 09:04:52;;;;;;;;;19.00;16.00;;;;;;;;4967952;28;46178;-72
2024/02/07 09:07:21;;;;;;;;;14.67;14.00;;;;;;;;4975543;28;45307;-68
2024/02/07 09:09:46;;;;;;;;;18.00;17.00;;;;;;;;4952411;28;45375;-70
2024/02/07 09:12:14;;;;;;;;;13.00;13.00;;;;;;;;4957355;28;45377;-72
2024/02/07 09:14:39;;;;;;;;;16.75;15.00;;;;;;;;4975507;28;45516;-73
2024/02/07 09:17:04;;;;;;;;;15.00;11.67;;;;;;;;4972070;28;45505;-73
2024/02/07 09:19:29;;;;;;;;;16.75;13.75;;;;;;;;4963050;28;45428;-72
2024/02/07 09:21:55;;;;;;;;;14.25;14.25;;;;;;;;4976966;28;45589;-73
2024/02/07 09:24:20;;;;;;;;;16.67;15.00;;;;;;;;4979548;28;45540;-72
2024/02/07 09:26:45;;;;;;;;;18.33;14.33;;;;;;;;4977534;28;45489;-72
2024/02/07 09:29:10;;;;;;;;;16.00;14.33;;;;;;;;4972811;28;45455;-71
2024/02/07 09:31:35;;;;;;;;;17.00;15.33;;;;;;;;4979341;28;45344;-74
2024/02/07 09:34:01;;;;;;;;;14.67;14.67;;;;;;;;4968060;28;45535;-73
2024/02/07 09:36:26;;;;;;;;;16.00;16.00;;;;;;;;4970976;28;45472;-74
2024/02/07 09:38:52;;;;;;;;;16.50;16.00;;;;;;;;4960700;28;45466;-73
2024/02/07 09:41:19;;;;;;;;;19.50;15.75;;;;;;;;4961508;28;45463;-73
2024/02/07 09:43:45;;;;;;;;;14.25;14.25;;;;;;;;4960156;28;46250;-72
2024/02/07 09:46:12;;;;;;;;;17.75;16.00;;;;;;;;4978780;28;45408;-73
2024/02/07 09:48:37;;;;;;;;;16.00;15.75;;;;;;;;4978447;28;45364;-72
2024/02/07 09:51:03;;;;;;;;;15.50;14.75;;;;;;;;4978218;28;45325;-73
2024/02/07 09:53:30;;;;;;;;;18.25;15.00;;;;;;;;4975324;28;46127;-75
2024/02/07 09:55:55;;;;;;;;;17.00;14.75;;;;;;;;4963688;28;45983;-76
2024/02/07 09:58:20;;;;;;;;;14.00;14.00;;;;;;;;4953857;28;45730;-76
2024/02/07 10:00:49;;;;;;;;;16.25;15.50;;;;;;;;4948859;28;45441;-72
2024/02/07 10:03:17;;;;;;;;;14.00;12.75;;;;;;;;4970274;28;46253;-73
2024/02/07 10:05:45;;;;;;;;;14.25;12.00;;;;;;;;4968118;28;45534;-73
2024/02/07 10:08:12;;;;;;;;;14.75;13.75;;;;;;;;4972650;28;45379;-73
2024/02/07 10:10:40;;;;;;;;;14.25;10.75;;;;;;;;4977343;28;45573;-72
2024/02/07 10:13:05;;;;;;;;;14.25;14.25;;;;;;;;4970421;28;46931;-72
2024/02/07 10:15:30;;;;;;;;;9.00;9.00;;;;;;;;4976835;28;45293;-72
2024/02/07 10:17:55;;;;;;;;;18.25;15.25;;;;;;;;4955342;28;45423;-73
2024/02/07 10:20:21;;;;;;;;;13.67;12.67;;;;;;;;4968286;28;45254;-71
2024/02/07 10:22:46;;;;;;;;;9.25;9.00;;;;;;;;4969267;28;45523;-71
2024/02/07 10:25:12;;;;;;;;;16.33;13.00;;;;;;;;4975207;28;45313;-70
2024/02/07 10:27:38;;;;;;;;;13.75;12.75;;;;;;;;4944405;28;45551;-70
2024/02/07 10:30:04;;;;;;;;;14.75;12.75;;;;;;;;4951021;28;45929;-70
2024/02/07 10:32:29;;;;;;;;;14.25;14.25;;;;;;;;4966100;28;45652;-70
2024/02/07 10:34:54;;;;;;;;;17.50;14.50;;;;;;;;4975254;28;46871;-67
2024/02/07 10:37:20;;;;;;;;;13.33;12.00;;;;;;;;4967588;28;45607;-70
2024/02/07 10:39:45;;;;;;;;;12.75;10.75;;;;;;;;4958827;28;45794;-70
2024/02/07 10:42:10;;;;;;;;;13.50;10.25;;;;;;;;4972081;28;46239;-70
2024/02/07 10:44:36;;;;;;;;;13.75;13.75;;;;;;;;4948229;28;46012;-70
2024/02/07 10:47:02;;;;;;;;;13.00;10.33;;;;;;;;4966151;28;46022;-70
2024/02/07 10:49:28;;;;;;;;;13.00;13.00;;;;;;;;4954596;28;45706;-70
2024/02/07 10:51:54;;;;;;;;;12.75;12.75;;;;;;;;4954964;28;48137;-71
2024/02/07 10:54:19;;;;;;;;;15.75;13.00;;;;;;;;4957646;28;45447;-70
2024/02/07 10:56:45;;;;;;;;;14.50;14.50;;;;;;;;4970883;28;45442;-71
2024/02/07 10:59:11;;;;;;;;;12.50;12.25;;;;;;;;4947186;28;45613;-71
2024/02/07 11:01:36;;;;;;;;;14.00;12.25;;;;;;;;4968385;28;45645;-70
2024/02/07 11:04:02;;;;;;;;;15.00;13.75;;;;;;;;4969030;28;45477;-71
2024/02/07 11:06:27;;;;;;;;;14.75;14.75;;;;;;;;4972412;28;47345;-71
2024/02/07 11:08:57;;;;;;;;;12.67;11.67;;;;;;;;4967472;28;45713;-71
2024/02/07 11:11:27;;;;;;;;;14.25;14.00;;;;;;;;4939772;28;47333;-71
2024/02/07 11:13:53;;;;;;;;;15.00;13.00;;;;;;;;4969394;28;46135;-71
2024/02/07 11:16:19;;;;;;;;;8.75;8.00;;;;;;;;4964296;28;45774;-69
2024/02/07 11:18:44;;;;;;;;;14.50;12.00;;;;;;;;4966005;28;46021;-69
2024/02/07 11:21:12;;;;;;;;;14.75;13.50;;;;;;;;4971067;28;46544;-70
2024/02/07 11:23:38;;;;;;;;;12.50;12.25;;;;;;;;4961146;28;45938;-70
2024/02/07 11:26:04;;;;;;;;;8.75;8.25;;;;;;;;4977179;28;45414;-69
2024/02/07 11:28:29;;;;;;;;;11.25;11.00;;;;;;;;4979495;28;45663;-70
2024/02/07 11:30:55;;;;;;;;;18.75;15.75;;;;;;;;4961328;28;46660;-69
2024/02/07 11:33:20;;;;;;;;;12.00;9.75;;;;;;;;4980531;28;45894;-70
2024/02/07 11:35:46;;;;;;;;;14.25;13.50;;;;;;;;4955157;28;45501;-69
2024/02/07 11:38:11;;;;;;;;;16.75;10.50;;;;;;;;4957880;28;45814;-69
2024/02/07 11:40:41;;;;;;;;;12.50;10.25;;;;;;;;4977140;28;46119;-69
2024/02/07 11:43:10;;;;;;;;;10.50;9.50;;;;;;;;4962111;28;46073;-70
2024/02/07 11:45:36;;;;;;;;;14.50;13.00;;;;;;;;4978429;28;45385;-69
2024/02/07 11:48:02;;;;;;;;;9.50;9.50;;;;;;;;4977706;28;45436;-69
2024/02/07 11:50:34;;;;;;;;;11.00;10.50;;;;;;;;4974634;28;45365;-70
2024/02/07 11:52:59;;;;;;;;;12.25;8.50;;;;;;;;4979626;28;45492;-69
2024/02/07 11:55:24;;;;;;;;;10.67;10.33;;;;;;;;4941607;28;45543;-69
2024/02/07 11:57:53;;;;;;;;;9.00;9.00;;;;;;;;4941389;28;45589;-70
2024/02/07 12:00:19;;;;;;;;;9.00;9.00;;;;;;;;4958991;28;47465;-70
2024/02/07 12:02:48;;;;;;;;;13.75;13.50;;;;;;;;4978816;28;45564;-70
2024/02/07 12:05:14;;;;;;;;;14.75;12.25;;;;;;;;4976485;28;45647;-69
2024/02/07 12:07:40;;;;;;;;;11.75;8.50;;;;;;;;4961355;28;45752;-69
2024/02/07 12:10:07;;;;;;;;;8.75;8.75;;;;;;;;4971841;28;45540;-69
2024/02/07 12:12:32;;;;;;;;;9.00;8.00;;;;;;;;4961629;28;45910;-69
2024/02/07 12:14:58;;;;;;;;;10.33;10.33;;;;;;;;4963390;28;45473;-69
2024/02/07 12:17:23;;;;;;;;;6.33;6.00;;;;;;;;4978919;28;45305;-69
2024/02/07 12:19:48;;;;;;;;;8.00;8.00;;;;;;;;4979959;28;45297;-70
2024/02/07 12:22:17;;;;;;;;;7.25;6.75;;;;;;;;4962870;28;45473;-70
2024/02/07 12:24:43;;;;;;;;;8.00;7.75;;;;;;;;4962485;28;45402;-71
2024/02/07 12:27:09;;;;;;;;;9.25;7.50;;;;;;;;4972722;28;45631;-70
2024/02/07 12:29:34;;;;;;;;;9.50;7.25;;;;;;;;4950414;28;47068;-70
2024/02/07 12:32:00;;;;;;;;;8.00;6.25;;;;;;;;4960610;28;45275;-70
2024/02/07 12:34:26;;;;;;;;;8.25;7.50;;;;;;;;4980810;28;45289;-70
2024/02/07 12:36:53;;;;;;;;;8.00;6.00;;;;;;;;4978879;28;45319;-70
2024/02/07 12:39:18;;;;;;;;;8.75;7.00;;;;;;;;4980978;28;45590;-70
2024/02/07 12:41:45;;;;;;;;;8.00;6.00;;;;;;;;4980475;28;45378;-70
2024/02/07 12:44:10;;;;;;;;;8.25;7.00;;;;;;;;4980952;28;45550;-70
2024/02/07 12:46:35;;;;;;;;;8.00;7.00;;;;;;;;4980439;28;45464;-70
2024/02/07 12:49:00;;;;;;;;;9.67;8.00;;;;;;;;4980840;28;45487;-70
2024/02/07 12:51:26;;;;;;;;;7.00;6.33;;;;;;;;4980913;28;45526;-70
2024/02/07 12:53:51;;;;;;;;;7.50;7.00;;;;;;;;4979440;28;45559;-70
2024/02/07 12:56:18;;;;;;;;;5.67;5.67;;;;;;;;4971298;28;45400;-68
2024/02/07 12:58:43;;;;;;;;;7.75;6.50;;;;;;;;4956059;28;46445;-69
2024/02/07 13:01:08;;;;;;;;;6.00;5.00;;;;;;;;4950807;28;45682;-69
2024/02/07 13:03:34;;;;;;;;;8.00;6.00;;;;;;;;4970102;28;45956;-69
2024/02/07 13:05:59;;;;;;;;;7.75;7.75;;;;;;;;4968924;28;45484;-69
2024/02/07 13:08:24;;;;;;;;;8.00;6.00;;;;;;;;4973011;28;45313;-69
2024/02/07 13:10:50;;;;;;;;;7.00;6.50;;;;;;;;4952717;28;45532;-70
2024/02/07 13:13:15;;;;;;;;;5.50;5.50;;;;;;;;4971570;28;45349;-70
2024/02/07 13:15:40;;;;;;;;;5.00;5.00;;;;;;;;4972147;28;45661;-69
2024/02/07 13:18:05;;;;;;;;;9.67;6.33;;;;;;;;4977115;28;46589;-69
2024/02/07 13:20:30;;;;;;;;;5.67;4.33;;;;;;;;4967002;28;45685;-69
2024/02/07 13:22:56;;;;;;;;;7.75;5.25;;;;;;;;4974429;28;46303;-69
2024/02/07 13:25:22;;;;;;;;;7.00;6.50;;;;;;;;4968260;28;45534;-69
2024/02/07 13:27:47;;;;;;;;;5.75;5.75;;;;;;;;4973157;28;45463;-69
2024/02/07 13:30:12;;;;;;;;;8.00;7.00;;;;;;;;4977286;28;45384;-69
2024/02/07 13:32:38;;;;;;;;;3.00;1.75;;;;;;;;4969657;28;45358;-69
2024/02/07 13:35:03;;;;;;;;;5.00;4.67;;;;;;;;4978353;28;45447;-68
2024/02/07 13:37:28;;;;;;;;;6.25;5.50;;;;;;;;4975720;28;45329;-69
2024/02/07 13:39:54;;;;;;;;;6.00;6.00;;;;;;;;4960309;28;45415;-69
2024/02/07 13:42:20;;;;;;;;;3.50;3.50;;;;;;;;4969255;28;45548;-70
2024/02/07 13:44:45;;;;;;;;;1.25;1.25;;;;;;;;4975125;28;45393;-69
2024/02/07 13:47:10;;;;;;;;;7.67;3.67;;;;;;;;4954708;28;46125;-68
2024/02/07 13:49:35;;;;;;;;;7.00;5.00;;;;;;;;4976315;28;45677;-69
2024/02/07 13:52:02;;;;;;;;;7.75;6.50;;;;;;;;4975567;28;45326;-69
2024/02/07 13:54:27;;;;;;;;;5.00;5.00;;;;;;;;4978399;28;45425;-69
2024/02/07 13:56:53;;;;;;;;;6.00;6.00;;;;;;;;4976472;28;45611;-69
2024/02/07 13:59:18;;;;;;;;;5.67;5.67;;;;;;;;4970023;28;45329;-69
2024/02/07 14:01:43;;;;;;;;;5.00;4.67;;;;;;;;4967463;28;45677;-69
2024/02/07 14:04:08;;;;;;;;;5.00;5.00;;;;;;;;4978262;28;45444;-69
2024/02/07 14:06:34;;;;;;;;;4.00;4.00;;;;;;;;4976939;28;45521;-69
2024/02/07 14:08:59;;;;;;;;;6.33;5.00;;;;;;;;4971696;28;45433;-69
2024/02/07 14:11:24;;;;;;;;;5.00;5.00;;;;;;;;4954199;28;45607;-69
2024/02/07 14:13:49;;;;;;;;;7.00;4.50;;;;;;;;4977986;28;45230;-69
2024/02/07 14:16:16;;;;;;;;;5.67;5.67;;;;;;;;4970864;28;45762;-69
2024/02/07 14:18:41;;;;;;;;;7.00;6.00;;;;;;;;4969043;28;45633;-69
2024/02/07 14:21:06;;;;;;;;;5.00;5.00;;;;;;;;4977570;28;45418;-69
2024/02/07 14:23:31;;;;;;;;;6.25;5.75;;;;;;;;4972268;28;45750;-69
2024/02/07 14:25:57;;;;;;;;;5.00;5.00;;;;;;;;4965762;28;45539;-68
2024/02/07 14:28:22;;;;;;;;;2.00;1.00;;;;;;;;4958403;28;45630;-68
2024/02/07 14:30:47;;;;;;;;;4.00;4.00;;;;;;;;4973270;28;45360;-69
2024/02/07 14:33:13;;;;;;;;;5.67;5.00;;;;;;;;4959868;28;45791;-69
2024/02/07 14:35:38;;;;;;;;;4.50;4.50;;;;;;;;4976595;28;46079;-69
2024/02/07 14:38:03;;;;;;;;;3.33;3.00;;;;;;;;4974366;28;45682;-69
2024/02/07 14:40:29;;;;;;;;;4.00;4.00;;;;;;;;4957060;28;45413;-69
2024/02/07 14:42:54;;;;;;;;;4.75;4.75;;;;;;;;4976093;28;45376;-70
2024/02/07 14:45:20;;;;;;;;;2.00;2.00;;;;;;;;4967049;28;45687;-69
2024/02/07 14:47:45;;;;;;;;;4.00;4.00;;;;;;;;4975128;28;45333;-69
2024/02/07 14:50:10;;;;;;;;;3.33;3.33;;;;;;;;4977207;28;45699;-69
2024/02/07 14:52:35;;;;;;;;;4.00;4.00;;;;;;;;4977269;28;45596;-69
2024/02/07 14:55:00;;;;;;;;;3.50;3.50;;;;;;;;4970347;28;45351;-69
2024/02/07 14:57:26;;;;;;;;;2.33;2.33;;;;;;;;4975084;28;45489;-69
2024/02/07 14:59:52;;;;;;;;;2.25;2.25;;;;;;;;4970158;28;45471;-69
2024/02/07 15:02:17;;;;;;;;;3.00;3.00;;;;;;;;4975178;28;45460;-69
2024/02/07 15:04:42;;;;;;;;;4.00;3.00;;;;;;;;4971847;28;45467;-69
2024/02/07 15:07:08;;;;;;;;;5.67;4.00;;;;;;;;4972599;28;45424;-69
2024/02/07 15:09:33;;;;;;;;;4.00;3.00;;;;;;;;4973721;28;45589;-69
2024/02/07 15:11:58;;;;;;;;;2.33;2.33;;;;;;;;4978154;28;45466;-68
2024/02/07 15:14:23;;;;;;;;;3.00;3.00;;;;;;;;4973104;28;46286;-69
2024/02/07 15:16:49;;;;;;;;;2.25;2.25;;;;;;;;4978181;28;45563;-69
2024/02/07 15:19:14;;;;;;;;;3.00;2.00;;;;;;;;4981519;28;45324;-69
2024/02/07 15:21:39;;;;;;;;;3.00;3.00;;;;;;;;4976918;28;45413;-69
2024/02/07 15:24:04;;;;;;;;;2.00;2.00;;;;;;;;4969090;28;45349;-68
2024/02/07 15:26:29;;;;;;;;;2.25;2.25;;;;;;;;4950417;28;46125;-69